Wetterdaten: aktuell Mittwoch, 20.03.2019 11:01
Datum Zeit Temperatur Luftfeuchte Luftdruck Regen Wind Richtung Richtung Taupunkt Windchill
20.03.2019 11:01 8,3 C 22 % 1033,0 hPa 0,0 mm 6,9 km/h (2 Bft) SO22.5 140 -12,1 C 7,9 C
20.03.2019 10:56 8,2 C 22 % 1033,0 hPa 0,0 mm 5,4 km/h (1 Bft) S-SO 150 -12,2 C 8,2 C
20.03.2019 10:51 8,1 C 22 % 1033,1 hPa 0,0 mm 0,7 km/h (0 Bft) SO 140 -12,3 C 8,1 C
20.03.2019 10:46 7,9 C 22 % 1033,1 hPa 0,0 mm 1,0 km/h (0 Bft) SO 145 -12,5 C 7,9 C
20.03.2019 10:41 7,7 C 22 % 1033,2 hPa 0,0 mm 5,2 km/h (1 Bft) S-SO 150 -12,6 C 7,7 C
20.03.2019 10:36 7,5 C 22 % 1033,2 hPa 0,0 mm 5,4 km/h (1 Bft) S-SO 150 -12,8 C 7,5 C
20.03.2019 10:31 7,3 C 22 % 1033,2 hPa 0,0 mm 7,0 km/h (2 Bft) S-SO 150 -13,0 C 6,8 C
20.03.2019 10:26 7,3 C 23 % 1033,2 hPa 0,0 mm 6,1 km/h (2 Bft) S-SO 150 -12,4 C 7,3 C
20.03.2019 10:21 7,4 C 29 % 1033,2 hPa 0,0 mm 5,5 km/h (1 Bft) S-SO 160 -9,4 C 7,4 C
20.03.2019 10:16 7,2 C 29 % 1033,3 hPa 0,0 mm 2,9 km/h (1 Bft) S-SO 155 -9,6 C 7,2 C
20.03.2019 10:11 7,0 C 30 % 1033,3 hPa 0,0 mm 0,3 km/h (0 Bft) S-SO 150 -9,4 C 7,0 C
20.03.2019 10:06 6,9 C 31 % 1033,3 hPa 0,0 mm 3,9 km/h (1 Bft) S-SO 150 -9,0 C 6,9 C
20.03.2019 10:01 6,9 C 31 % 1033,3 hPa 0,0 mm 6,3 km/h (2 Bft) S67.5 170 -9,0 C 6,9 C
20.03.2019 09:56 6,8 C 33 % 1033,4 hPa 0,0 mm 4,2 km/h (1 Bft) NW22.5 320 -8,3 C 6,8 C
20.03.2019 09:51 6,5 C 33 % 1033,4 hPa 0,0 mm 0,5 km/h (0 Bft) S-SW45 205 -8,6 C 6,5 C
20.03.2019 09:46 6,3 C 33 % 1033,5 hPa 0,0 mm 5,1 km/h (1 Bft) S-SO 155 -8,8 C 6,3 C
20.03.2019 09:42 6,2 C 33 % 1033,5 hPa 0,0 mm 2,5 km/h (1 Bft) S-SO 155 -8,8 C 6,2 C
20.03.2019 09:37 6,1 C 33 % 1033,5 hPa 0,0 mm 1,3 km/h (1 Bft) S-SO 155 -8,9 C 6,1 C
20.03.2019 09:32 6,1 C 36 % 1033,5 hPa 0,0 mm 4,0 km/h (1 Bft) SO 125 -7,8 C 6,1 C
20.03.2019 09:26 6,1 C 36 % 1033,5 hPa 0,0 mm 0,5 km/h (0 Bft) N 355 -7,8 C 6,1 C
20.03.2019 09:21 6,3 C 36 % 1033,5 hPa 0,0 mm 3,4 km/h (1 Bft) N 355 -7,6 C 6,3 C
20.03.2019 09:16 6,4 C 34 % 1033,5 hPa 0,0 mm 4,4 km/h (1 Bft) N 355 -8,3 C 6,4 C
20.03.2019 09:11 6,5 C 36 % 1033,4 hPa 0,0 mm 2,4 km/h (1 Bft) N 355 -7,5 C 6,5 C
20.03.2019 09:06 6,4 C 37 % 1033,5 hPa 0,0 mm 0,0 km/h (0 Bft) N 355 -7,2 C 6,4 C
20.03.2019 09:01 6,4 C 37 % 1033,5 hPa 0,0 mm 2,1 km/h (1 Bft) N 355 -7,2 C 6,4 C
20.03.2019 08:56 6,3 C 36 % 1033,5 hPa 0,0 mm 0,6 km/h (0 Bft) N 355 -7,6 C 6,3 C
20.03.2019 08:51 6,3 C 36 % 1033,5 hPa 0,0 mm 2,9 km/h (1 Bft) N 355 -7,6 C 6,3 C
20.03.2019 08:46 6,2 C 34 % 1033,5 hPa 0,0 mm 3,3 km/h (1 Bft) N 355 -8,5 C 6,2 C
20.03.2019 08:41 6,2 C 34 % 1033,5 hPa 0,0 mm 0,0 km/h (0 Bft) N 355 -8,5 C 6,2 C
20.03.2019 08:36 6,4 C 34 % 1033,5 hPa 0,0 mm 0,0 km/h (0 Bft) N 355 -8,3 C 6,4 C
20.03.2019 08:31 6,4 C 34 % 1033,5 hPa 0,0 mm 0,0 km/h (0 Bft) N 355 -8,3 C 6,4 C
20.03.2019 08:26 6,5 C 33 % 1033,4 hPa 0,0 mm 0,0 km/h (0 Bft) N 355 -8,6 C 6,5 C
20.03.2019 08:21 6,5 C 33 % 1032,4 hPa 0,0 mm 0,0 km/h (0 Bft) N 355 -8,6 C 6,5 C
20.03.2019 08:16 6,5 C 33 % 1032,4 hPa 0,0 mm 0,0 km/h (0 Bft) N 355 -8,6 C 6,5 C
20.03.2019 08:11 6,1 C 36 % 1032,5 hPa 0,0 mm 0,0 km/h (0 Bft) N 355 -7,8 C 6,1 C
20.03.2019 08:06 5,7 C 38 % 1032,6 hPa 0,0 mm 0,0 km/h (0 Bft) N 355 -7,5 C 5,7 C
20.03.2019 08:01 5,0 C 39 % 1032,7 hPa 0,0 mm 0,0 km/h (0 Bft) N 355 -7,8 C 5,0 C
20.03.2019 07:57 5,0 C 37 % 1032,7 hPa 0,0 mm 0,0 km/h (0 Bft) N 355 -8,5 C 5,0 C
20.03.2019 07:52 5,0 C 38 % 1032,7 hPa 0,0 mm 0,0 km/h (0 Bft) N 355 -8,1 C 5,0 C
20.03.2019 07:47 4,8 C 40 % 1032,8 hPa 0,0 mm 0,0 km/h (0 Bft) N 355 -7,6 C 4,8 C
20.03.2019 07:41 4,2 C 42 % 1032,9 hPa 0,0 mm 0,0 km/h (0 Bft) N 355 -7,5 C 4,2 C
20.03.2019 07:36 3,9 C 43 % 1033,0 hPa 0,0 mm 0,0 km/h (0 Bft) N 355 -7,5 C 3,9 C
20.03.2019 07:31 3,8 C 43 % 1033,0 hPa 0,0 mm 0,0 km/h (0 Bft) N 355 -7,6 C 3,8 C
20.03.2019 07:26 3,2 C 47 % 1033,2 hPa 0,0 mm 0,0 km/h (0 Bft) N 355 -7,0 C 3,2 C
20.03.2019 07:21 2,3 C 51 % 1033,4 hPa 0,0 mm 0,0 km/h (0 Bft) N 355 -6,8 C 2,3 C
20.03.2019 07:16 1,8 C 56 % 1033,5 hPa 0,0 mm 0,0 km/h (0 Bft) N 355 -6,0 C 1,8 C
20.03.2019 07:11 0,9 C 60 % 1033,7 hPa 0,0 mm 0,0 km/h (0 Bft) N 355 -6,0 C 0,9 C
20.03.2019 07:06 -0,1 C 63 % 1034,0 hPa 0,0 mm 0,0 km/h (0 Bft) N 355 -6,3 C -0,1 C
20.03.2019 07:01 -0,5 C 64 % 1034,1 hPa 0,0 mm 0,0 km/h (0 Bft) N 355 -6,5 C -0,5 C
20.03.2019 06:56 -1,3 C 66 % 1034,3 hPa 0,0 mm 0,0 km/h (0 Bft) N 355 -6,8 C -1,3 C
20.03.2019 06:51 -2,0 C 66 % 1034,4 hPa 0,0 mm 0,0 km/h (0 Bft) N 355 -7,5 C -2,0 C
20.03.2019 06:46 -2,2 C 66 % 1034,5 hPa 0,0 mm 0,0 km/h (0 Bft) N 355 -7,7 C -2,2 C
20.03.2019 06:41 -2,5 C 66 % 1034,6 hPa 0,0 mm 0,0 km/h (0 Bft) N 355 -8,0 C -2,5 C
20.03.2019 06:36 -2,6 C 66 % 1033,5 hPa 0,0 mm 0,0 km/h (0 Bft) N 355 -8,1 C -2,6 C
20.03.2019 06:31 -2,6 C 66 % 1033,5 hPa 0,0 mm 0,0 km/h (0 Bft) N 355 -8,1 C -2,6 C
20.03.2019 06:26 -2,6 C 66 % 1033,5 hPa 0,0 mm 0,0 km/h (0 Bft) N 355 -8,1 C -2,6 C
20.03.2019 06:21 -2,6 C 64 % 1033,5 hPa 0,0 mm 2,6 km/h (1 Bft) N 355 -8,4 C -2,6 C
20.03.2019 06:16 -2,5 C 64 % 1033,5 hPa 0,0 mm 0,0 km/h (0 Bft) N 355 -8,4 C -2,5 C
20.03.2019 06:12 -2,4 C 64 % 1033,5 hPa 0,0 mm 0,0 km/h (0 Bft) N 355 -8,3 C -2,4 C
20.03.2019 06:07 -2,4 C 63 % 1033,5 hPa 0,0 mm 0,0 km/h (0 Bft) N 355 -8,5 C -2,4 C
20.03.2019 06:01 -2,4 C 63 % 1033,5 hPa 0,0 mm 0,0 km/h (0 Bft) N 355 -8,5 C -2,4 C
20.03.2019 05:56 -2,3 C 63 % 1033,4 hPa 0,0 mm 0,0 km/h (0 Bft) N 355 -8,4 C -2,3 C
20.03.2019 05:51 -2,3 C 63 % 1033,4 hPa 0,0 mm 0,0 km/h (0 Bft) N 355 -8,4 C -2,3 C
20.03.2019 05:46 -2,3 C 63 % 1033,4 hPa 0,0 mm 0,0 km/h (0 Bft) N 355 -8,4 C -2,3 C
20.03.2019 05:41 -2,3 C 63 % 1033,4 hPa 0,0 mm 0,0 km/h (0 Bft) N 355 -8,4 C -2,3 C
20.03.2019 05:36 -2,3 C 63 % 1033,4 hPa 0,0 mm 0,0 km/h (0 Bft) N 355 -8,4 C -2,3 C
20.03.2019 05:31 -2,3 C 63 % 1033,4 hPa 0,0 mm 0,0 km/h (0 Bft) N 355 -8,4 C -2,3 C
20.03.2019 05:26 -2,2 C 63 % 1033,4 hPa 0,0 mm 0,0 km/h (0 Bft) N 355 -8,3 C -2,2 C
20.03.2019 05:21 -2,1 C 63 % 1033,4 hPa 0,0 mm 0,0 km/h (0 Bft) N 355 -8,2 C -2,1 C
20.03.2019 05:16 -2,1 C 63 % 1033,4 hPa 0,0 mm 0,0 km/h (0 Bft) N 355 -8,2 C -2,1 C
20.03.2019 05:11 -2,1 C 64 % 1033,4 hPa 0,0 mm 0,0 km/h (0 Bft) N 355 -8,0 C -2,1 C
20.03.2019 05:06 -2,1 C 64 % 1033,4 hPa 0,0 mm 0,0 km/h (0 Bft) N 355 -8,0 C -2,1 C
20.03.2019 05:01 -2,0 C 64 % 1033,4 hPa 0,0 mm 0,0 km/h (0 Bft) N 355 -7,9 C -2,0 C
20.03.2019 04:56 -2,1 C 64 % 1033,4 hPa 0,0 mm 0,0 km/h (0 Bft) N 355 -8,0 C -2,1 C
20.03.2019 04:51 -2,1 C 64 % 1033,4 hPa 0,0 mm 0,0 km/h (0 Bft) N 355 -8,0 C -2,1 C
20.03.2019 04:46 -2,1 C 64 % 1033,4 hPa 0,0 mm 0,0 km/h (0 Bft) N 355 -8,0 C -2,1 C
20.03.2019 04:41 -2,1 C 64 % 1033,4 hPa 0,0 mm 0,0 km/h (0 Bft) N 355 -8,0 C -2,1 C
20.03.2019 04:36 -2,1 C 64 % 1033,4 hPa 0,0 mm 0,0 km/h (0 Bft) N 355 -8,0 C -2,1 C
20.03.2019 04:31 -2,1 C 64 % 1033,4 hPa 0,0 mm 0,0 km/h (0 Bft) N 355 -8,0 C -2,1 C
20.03.2019 04:27 -2,1 C 63 % 1033,4 hPa 0,0 mm 1,3 km/h (1 Bft) N 360 -8,2 C -2,1 C
20.03.2019 04:22 -2,0 C 63 % 1033,4 hPa 0,0 mm 2,7 km/h (1 Bft) N 355 -8,1 C -2,0 C
20.03.2019 04:16 -1,9 C 62 % 1033,3 hPa 0,0 mm 0,0 km/h (0 Bft) N 355 -8,2 C -1,9 C
20.03.2019 04:11 -1,9 C 62 % 1033,3 hPa 0,0 mm 0,0 km/h (0 Bft) N 355 -8,2 C -1,9 C
20.03.2019 04:06 -1,8 C 62 % 1033,3 hPa 0,0 mm 0,0 km/h (0 Bft) N 355 -8,1 C -1,8 C
20.03.2019 04:01 -1,8 C 62 % 1033,3 hPa 0,0 mm 0,0 km/h (0 Bft) N 355 -8,1 C -1,8 C
20.03.2019 03:56 -1,7 C 62 % 1033,3 hPa 0,0 mm 0,0 km/h (0 Bft) N 355 -8,0 C -1,7 C
20.03.2019 03:51 -1,6 C 62 % 1033,3 hPa 0,0 mm 0,0 km/h (0 Bft) N 355 -7,9 C -1,6 C
20.03.2019 03:46 -1,6 C 62 % 1032,2 hPa 0,0 mm 0,0 km/h (0 Bft) N 355 -7,9 C -1,6 C
20.03.2019 03:41 -1,6 C 62 % 1032,2 hPa 0,0 mm 0,0 km/h (0 Bft) N 355 -7,9 C -1,6 C
20.03.2019 03:36 -1,6 C 61 % 1032,2 hPa 0,0 mm 0,0 km/h (0 Bft) N 355 -8,1 C -1,6 C
20.03.2019 03:31 -1,6 C 61 % 1032,2 hPa 0,0 mm 0,0 km/h (0 Bft) N 355 -8,1 C -1,6 C
20.03.2019 03:26 -1,5 C 61 % 1032,2 hPa 0,0 mm 0,0 km/h (0 Bft) N 355 -8,0 C -1,5 C
20.03.2019 03:21 -1,3 C 60 % 1032,1 hPa 0,0 mm 0,0 km/h (0 Bft) N 355 -8,0 C -1,3 C
20.03.2019 03:16 -1,3 C 60 % 1032,1 hPa 0,0 mm 0,0 km/h (0 Bft) N 355 -8,0 C -1,3 C
20.03.2019 03:11 -1,2 C 61 % 1032,1 hPa 0,0 mm 0,0 km/h (0 Bft) N 355 -7,7 C -1,2 C
20.03.2019 03:06 -1,2 C 60 % 1032,1 hPa 0,0 mm 0,0 km/h (0 Bft) N 355 -7,9 C -1,2 C
20.03.2019 03:01 -1,2 C 60 % 1032,1 hPa 0,0 mm 0,0 km/h (0 Bft) N 355 -7,9 C -1,2 C
20.03.2019 02:56 -1,2 C 61 % 1033,2 hPa 0,0 mm 0,0 km/h (0 Bft) N 355 -7,7 C -1,2 C
20.03.2019 02:51 -1,2 C 60 % 1033,2 hPa 0,0 mm 0,0 km/h (0 Bft) N 355 -7,9 C -1,2 C
20.03.2019 02:46 -1,3 C 60 % 1033,2 hPa 0,0 mm 0,0 km/h (0 Bft) N 355 -8,0 C -1,3 C
20.03.2019 02:42 -1,2 C 60 % 1033,2 hPa 0,0 mm 0,0 km/h (0 Bft) N 355 -7,9 C -1,2 C
20.03.2019 02:37 -1,1 C 60 % 1033,1 hPa 0,0 mm 0,0 km/h (0 Bft) N 355 -7,9 C -1,1 C
20.03.2019 02:31 -1,0 C 60 % 1033,1 hPa 0,0 mm 0,3 km/h (0 Bft) N 355 -7,8 C -1,0 C
20.03.2019 02:26 -1,0 C 60 % 1033,1 hPa 0,0 mm 0,0 km/h (0 Bft) N 355 -7,8 C -1,0 C
20.03.2019 02:21 -0,9 C 59 % 1033,1 hPa 0,0 mm 0,0 km/h (0 Bft) N 355 -7,9 C -0,9 C
20.03.2019 02:16 -0,9 C 59 % 1033,1 hPa 0,0 mm 0,0 km/h (0 Bft) N 355 -7,9 C -0,9 C
20.03.2019 02:11 -0,8 C 59 % 1033,1 hPa 0,0 mm 0,1 km/h (0 Bft) N 355 -7,8 C -0,8 C
20.03.2019 02:06 -0,7 C 59 % 1033,0 hPa 0,0 mm 0,0 km/h (0 Bft) N 355 -7,7 C -0,7 C
20.03.2019 02:01 -0,7 C 59 % 1033,0 hPa 0,0 mm 0,0 km/h (0 Bft) N 355 -7,7 C -0,7 C
20.03.2019 01:56 -0,8 C 58 % 1033,1 hPa 0,0 mm 0,0 km/h (0 Bft) N 355 -8,0 C -0,8 C
20.03.2019 01:51 -0,8 C 58 % 1033,1 hPa 0,0 mm 0,0 km/h (0 Bft) N 355 -8,0 C -0,8 C
20.03.2019 01:46 -0,8 C 58 % 1033,1 hPa 0,0 mm 0,0 km/h (0 Bft) N 355 -8,0 C -0,8 C
20.03.2019 01:41 -0,7 C 58 % 1033,0 hPa 0,0 mm 0,0 km/h (0 Bft) N 355 -7,9 C -0,7 C
20.03.2019 01:36 -0,7 C 58 % 1033,0 hPa 0,0 mm 0,0 km/h (0 Bft) N 355 -7,9 C -0,7 C
20.03.2019 01:31 -0,6 C 58 % 1033,0 hPa 0,0 mm 3,0 km/h (1 Bft) N 355 -7,8 C -0,6 C
20.03.2019 01:26 -0,6 C 58 % 1033,0 hPa 0,0 mm 0,0 km/h (0 Bft) N 355 -7,8 C -0,6 C
20.03.2019 01:21 -0,6 C 58 % 1033,0 hPa 0,0 mm 0,6 km/h (0 Bft) N 355 -7,8 C -0,6 C
20.03.2019 01:16 -0,6 C 58 % 1033,0 hPa 0,0 mm 0,0 km/h (0 Bft) N 355 -7,8 C -0,6 C
20.03.2019 01:11 -0,6 C 58 % 1033,0 hPa 0,0 mm 0,0 km/h (0 Bft) N 355 -7,8 C -0,6 C
20.03.2019 01:06 -0,6 C 58 % 1033,0 hPa 0,0 mm 0,0 km/h (0 Bft) N 355 -7,8 C -0,6 C
20.03.2019 01:01 -0,6 C 58 % 1033,0 hPa 0,0 mm 0,2 km/h (0 Bft) N 355 -7,8 C -0,6 C
20.03.2019 00:57 -0,4 C 57 % 1033,0 hPa 0,0 mm 0,0 km/h (0 Bft) N 355 -7,9 C -0,4 C
20.03.2019 00:51 -0,3 C 57 % 1032,9 hPa 0,0 mm 0,0 km/h (0 Bft) N 355 -7,8 C -0,3 C
20.03.2019 00:46 -0,3 C 57 % 1032,9 hPa 0,0 mm 0,0 km/h (0 Bft) N 355 -7,8 C -0,3 C
20.03.2019 00:41 -0,3 C 57 % 1032,9 hPa 0,0 mm 0,0 km/h (0 Bft) N 355 -7,8 C -0,3 C
20.03.2019 00:36 -0,3 C 58 % 1032,9 hPa 0,0 mm 0,0 km/h (0 Bft) N 355 -7,5 C -0,3 C
20.03.2019 00:31 -0,2 C 58 % 1032,9 hPa 0,0 mm 0,0 km/h (0 Bft) N 355 -7,4 C -0,2 C
20.03.2019 00:26 0,0 C 57 % 1032,9 hPa 0,0 mm 0,0 km/h (0 Bft) N 355 -7,5 C 0,0 C
20.03.2019 00:21 0,1 C 56 % 1032,8 hPa 0,0 mm 0,0 km/h (0 Bft) N 355 -7,6 C 0,1 C
20.03.2019 00:16 0,1 C 56 % 1032,8 hPa 0,0 mm 0,0 km/h (0 Bft) N 355 -7,6 C 0,1 C
20.03.2019 00:11 0,2 C 56 % 1032,8 hPa 0,0 mm 3,0 km/h (1 Bft) N 355 -7,5 C 0,2 C
20.03.2019 00:06 0,2 C 56 % 1032,8 hPa 0,0 mm 0,0 km/h (0 Bft) N 355 -7,5 C 0,2 C
20.03.2019 00:01 0,4 C 54 % 1031,7 hPa 0,0 mm 0,0 km/h (0 Bft) N 355 -7,8 C 0,4 C
19.03.2019 23:56 0,4 C 54 % 1031,7 hPa 0,0 mm 0,0 km/h (0 Bft) N 355 -7,8 C 0,4 C
19.03.2019 23:51 0,5 C 53 % 1031,7 hPa 0,0 mm 0,0 km/h (0 Bft) N 355 -7,9 C 0,5 C
19.03.2019 23:46 0,5 C 52 % 1031,7 hPa 0,0 mm 0,0 km/h (0 Bft) N 355 -8,2 C 0,5 C
19.03.2019 23:42 0,5 C 52 % 1031,7 hPa 0,0 mm 0,1 km/h (0 Bft) N 355 -8,2 C 0,5 C
19.03.2019 23:37 0,6 C 52 % 1031,7 hPa 0,0 mm 0,1 km/h (0 Bft) N 355 -8,1 C 0,6 C
19.03.2019 23:31 0,6 C 52 % 1031,7 hPa 0,0 mm 0,0 km/h (0 Bft) N 355 -8,1 C 0,6 C
19.03.2019 23:26 0,7 C 52 % 1031,6 hPa 0,0 mm 0,2 km/h (0 Bft) N 355 -8,0 C 0,7 C
19.03.2019 23:21 0,7 C 51 % 1031,6 hPa 0,0 mm 2,2 km/h (1 Bft) N 355 -8,3 C 0,7 C
19.03.2019 23:16 0,8 C 51 % 1031,6 hPa 0,0 mm 3,0 km/h (1 Bft) N 355 -8,2 C 0,8 C
19.03.2019 23:11 0,9 C 50 % 1031,6 hPa 0,0 mm 3,4 km/h (1 Bft) N 355 -8,3 C 0,9 C
19.03.2019 23:06 0,9 C 50 % 1031,6 hPa 0,0 mm 0,3 km/h (0 Bft) N 355 -8,3 C 0,9 C
19.03.2019 23:01 0,9 C 50 % 1031,6 hPa 0,0 mm 0,0 km/h (0 Bft) N 355 -8,3 C 0,9 C
19.03.2019 22:56 0,8 C 50 % 1031,6 hPa 0,0 mm 0,0 km/h (0 Bft) N 355 -8,4 C 0,8 C
19.03.2019 22:51 0,8 C 50 % 1031,6 hPa 0,0 mm 0,0 km/h (0 Bft) N 355 -8,4 C 0,8 C
19.03.2019 22:46 0,9 C 50 % 1031,6 hPa 0,0 mm 0,0 km/h (0 Bft) N 355 -8,3 C 0,9 C
19.03.2019 22:41 1,1 C 48 % 1031,5 hPa 0,0 mm 0,0 km/h (0 Bft) N 355 -8,7 C 1,1 C
19.03.2019 22:36 1,2 C 48 % 1031,5 hPa 0,0 mm 0,0 km/h (0 Bft) N 355 -8,6 C 1,2 C
19.03.2019 22:31 1,3 C 48 % 1031,5 hPa 0,0 mm 0,0 km/h (0 Bft) N 355 -8,5 C 1,3 C
19.03.2019 22:26 1,5 C 47 % 1031,4 hPa 0,0 mm 0,0 km/h (0 Bft) N 355 -8,6 C 1,5 C
19.03.2019 22:21 1,5 C 47 % 1031,4 hPa 0,0 mm 0,0 km/h (0 Bft) N 355 -8,6 C 1,5 C
19.03.2019 22:16 1,5 C 47 % 1031,4 hPa 0,0 mm 0,0 km/h (0 Bft) N 355 -8,6 C 1,5 C
19.03.2019 22:11 1,7 C 47 % 1031,4 hPa 0,0 mm 0,0 km/h (0 Bft) N 355 -8,4 C 1,7 C
19.03.2019 22:06 1,9 C 46 % 1031,3 hPa 0,0 mm 0,0 km/h (0 Bft) N 355 -8,5 C 1,9 C
19.03.2019 22:02 1,9 C 46 % 1031,3 hPa 0,0 mm 0,0 km/h (0 Bft) N 355 -8,5 C 1,9 C
19.03.2019 21:57 2,0 C 44 % 1031,3 hPa 0,0 mm 0,0 km/h (0 Bft) N 355 -8,9 C 2,0 C
19.03.2019 21:51 2,2 C 44 % 1031,3 hPa 0,0 mm 0,0 km/h (0 Bft) N 355 -8,8 C 2,2 C
19.03.2019 21:46 2,2 C 44 % 1031,3 hPa 0,0 mm 0,0 km/h (0 Bft) N 355 -8,8 C 2,2 C
19.03.2019 21:41 2,4 C 43 % 1031,2 hPa 0,0 mm 0,0 km/h (0 Bft) N 355 -8,9 C 2,4 C
19.03.2019 21:36 2,5 C 43 % 1031,2 hPa 0,0 mm 0,0 km/h (0 Bft) N 355 -8,8 C 2,5 C
19.03.2019 21:31 2,5 C 43 % 1031,2 hPa 0,0 mm 0,0 km/h (0 Bft) N 355 -8,8 C 2,5 C
19.03.2019 21:26 2,5 C 43 % 1030,1 hPa 0,0 mm 0,0 km/h (0 Bft) N 355 -8,8 C 2,5 C
19.03.2019 21:21 2,6 C 43 % 1030,1 hPa 0,0 mm 0,0 km/h (0 Bft) N 355 -8,7 C 2,6 C
19.03.2019 21:16 2,8 C 42 % 1030,1 hPa 0,0 mm 0,0 km/h (0 Bft) N 355 -8,8 C 2,8 C
19.03.2019 21:11 2,9 C 42 % 1030,0 hPa 0,0 mm 0,0 km/h (0 Bft) N 355 -8,7 C 2,9 C
19.03.2019 21:06 2,9 C 42 % 1030,0 hPa 0,0 mm 0,1 km/h (0 Bft) N 355 -8,7 C 2,9 C
19.03.2019 21:01 2,9 C 42 % 1030,0 hPa 0,0 mm 0,0 km/h (0 Bft) N 355 -8,7 C 2,9 C
19.03.2019 20:56 3,0 C 41 % 1030,0 hPa 0,0 mm 0,0 km/h (0 Bft) N 355 -8,9 C 3,0 C
19.03.2019 20:51 3,0 C 41 % 1030,0 hPa 0,0 mm 0,1 km/h (0 Bft) N 355 -8,9 C 3,0 C
19.03.2019 20:46 3,1 C 41 % 1030,0 hPa 0,0 mm 0,0 km/h (0 Bft) N 355 -8,8 C 3,1 C
19.03.2019 20:41 3,1 C 41 % 1030,0 hPa 0,0 mm 0,9 km/h (0 Bft) N 350 -8,8 C 3,1 C
19.03.2019 20:36 3,2 C 40 % 1030,0 hPa 0,0 mm 0,9 km/h (0 Bft) N 350 -9,1 C 3,2 C
19.03.2019 20:31 3,4 C 40 % 1029,9 hPa 0,0 mm 0,9 km/h (0 Bft) N 350 -8,9 C 3,4 C
19.03.2019 20:26 3,6 C 40 % 1029,9 hPa 0,0 mm 0,9 km/h (0 Bft) N 350 -8,7 C 3,6 C
19.03.2019 20:21 3,6 C 39 % 1029,9 hPa 0,0 mm 0,9 km/h (0 Bft) N 350 -9,0 C 3,6 C
19.03.2019 20:16 3,7 C 39 % 1029,8 hPa 0,0 mm 0,9 km/h (0 Bft) N 350 -8,9 C 3,7 C
19.03.2019 20:11 3,8 C 39 % 1029,8 hPa 0,0 mm 0,9 km/h (0 Bft) N 350 -8,9 C 3,8 C
19.03.2019 20:06 3,8 C 39 % 1029,8 hPa 0,0 mm 0,9 km/h (0 Bft) N 350 -8,9 C 3,8 C
19.03.2019 20:01 4,0 C 38 % 1029,8 hPa 0,0 mm 0,9 km/h (0 Bft) N 350 -9,0 C 4,0 C
19.03.2019 19:56 4,1 C 38 % 1029,7 hPa 0,0 mm 0,9 km/h (0 Bft) N 350 -8,9 C 4,1 C
19.03.2019 19:51 4,2 C 38 % 1029,7 hPa 0,0 mm 0,9 km/h (0 Bft) N 350 -8,8 C 4,2 C
19.03.2019 19:46 4,2 C 38 % 1029,7 hPa 0,0 mm 0,9 km/h (0 Bft) N 350 -8,8 C 4,2 C
19.03.2019 19:41 4,3 C 38 % 1029,7 hPa 0,0 mm 0,9 km/h (0 Bft) N 350 -8,7 C 4,3 C
19.03.2019 19:36 4,3 C 38 % 1029,7 hPa 0,0 mm 0,9 km/h (0 Bft) N 350 -8,7 C 4,3 C
19.03.2019 19:31 4,4 C 37 % 1029,7 hPa 0,0 mm 0,9 km/h (0 Bft) N 350 -9,0 C 4,4 C
19.03.2019 19:26 4,4 C 37 % 1028,6 hPa 0,0 mm 0,9 km/h (0 Bft) N 350 -9,0 C 4,4 C
19.03.2019 19:21 4,6 C 36 % 1028,6 hPa 0,0 mm 0,9 km/h (0 Bft) N 350 -9,2 C 4,6 C
19.03.2019 19:16 4,7 C 36 % 1028,5 hPa 0,0 mm 0,9 km/h (0 Bft) N 350 -9,1 C 4,7 C
19.03.2019 19:11 4,9 C 36 % 1028,5 hPa 0,0 mm 0,9 km/h (0 Bft) N 350 -8,9 C 4,9 C
19.03.2019 19:06 5,1 C 34 % 1028,4 hPa 0,0 mm 0,9 km/h (0 Bft) N 350 -9,4 C 5,1 C
19.03.2019 19:01 5,1 C 34 % 1028,4 hPa 0,0 mm 0,9 km/h (0 Bft) N 350 -9,4 C 5,1 C
19.03.2019 18:56 5,3 C 34 % 1028,4 hPa 0,0 mm 0,9 km/h (0 Bft) N 350 -9,3 C 5,3 C
19.03.2019 18:51 5,7 C 33 % 1028,3 hPa 0,0 mm 0,9 km/h (0 Bft) N 350 -9,3 C 5,7 C
19.03.2019 18:46 5,7 C 33 % 1028,3 hPa 0,0 mm 0,9 km/h (0 Bft) N 350 -9,3 C 5,7 C
19.03.2019 18:41 5,9 C 33 % 1028,2 hPa 0,0 mm 0,9 km/h (0 Bft) N 350 -9,1 C 5,9 C
19.03.2019 18:36 6,0 C 31 % 1028,2 hPa 0,0 mm 0,9 km/h (0 Bft) N 350 -9,8 C 6,0 C
19.03.2019 18:31 6,1 C 31 % 1028,2 hPa 0,0 mm 0,9 km/h (0 Bft) N 350 -9,7 C 6,1 C
19.03.2019 18:27 6,2 C 30 % 1028,2 hPa 0,0 mm 0,9 km/h (0 Bft) N 350 -10,1 C 6,2 C
19.03.2019 18:22 6,4 C 30 % 1028,1 hPa 0,0 mm 0,9 km/h (0 Bft) N 350 -9,9 C 6,4 C
19.03.2019 18:17 6,5 C 30 % 1027,0 hPa 0,0 mm 1,5 km/h (1 Bft) N 350 -9,8 C 6,5 C
19.03.2019 18:12 6,6 C 29 % 1027,0 hPa 0,0 mm 1,3 km/h (1 Bft) N 350 -10,1 C 6,6 C
19.03.2019 18:07 6,8 C 29 % 1027,0 hPa 0,0 mm 4,2 km/h (1 Bft) N-NW 335 -10,0 C 6,8 C
19.03.2019 18:02 7,0 C 28 % 1026,9 hPa 0,0 mm 5,9 km/h (2 Bft) N-NW22.5 340 -10,2 C 7,0 C
19.03.2019 17:57 7,1 C 28 % 1026,9 hPa 0,0 mm 6,1 km/h (2 Bft) N-NW22.5 330 -10,1 C 7,1 C
19.03.2019 17:52 7,3 C 28 % 1026,8 hPa 0,0 mm 6,1 km/h (2 Bft) N45 350 -10,0 C 7,3 C
19.03.2019 17:47 7,5 C 26 % 1026,8 hPa 0,0 mm 5,6 km/h (1 Bft) NW45 315 -10,7 C 7,5 C
19.03.2019 17:42 7,7 C 23 % 1026,8 hPa 0,0 mm 0,8 km/h (0 Bft) N-NW22.5 340 -12,1 C 7,7 C
19.03.2019 17:37 7,9 C 22 % 1026,7 hPa 0,0 mm 6,4 km/h (2 Bft) N-NW45 340 -12,5 C 7,9 C
19.03.2019 17:31 8,0 C 22 % 1026,7 hPa 0,0 mm 4,0 km/h (1 Bft) NW45 310 -12,4 C 8,0 C
19.03.2019 17:26 8,1 C 22 % 1026,7 hPa 0,0 mm 0,9 km/h (0 Bft) NW22.5 305 -12,3 C 8,1 C
19.03.2019 17:21 8,1 C 22 % 1026,7 hPa 0,0 mm 4,9 km/h (1 Bft) N-NW 330 -12,3 C 8,1 C
19.03.2019 17:16 8,2 C 22 % 1026,6 hPa 0,0 mm 3,4 km/h (1 Bft) NW 305 -12,2 C 8,2 C
19.03.2019 17:11 8,2 C 22 % 1026,6 hPa 0,0 mm 5,3 km/h (1 Bft) N-NO67.5 15 -12,2 C 8,2 C
19.03.2019 17:06 8,2 C 22 % 1026,6 hPa 0,0 mm 7,2 km/h (2 Bft) W-NW22.5 285 -12,2 C 7,6 C
19.03.2019 17:01 8,4 C 22 % 1026,6 hPa 0,0 mm 3,8 km/h (1 Bft) N-NW45 330 -12,0 C 8,4 C
19.03.2019 16:56 8,4 C 22 % 1026,6 hPa 0,0 mm 4,6 km/h (1 Bft) N45 350 -12,0 C 8,4 C
19.03.2019 16:51 8,5 C 22 % 1026,6 hPa 0,0 mm 10,3 km/h (2 Bft) N-NW67.5 340 -12,0 C 5,8 C
19.03.2019 16:46 8,6 C 22 % 1026,5 hPa 0,0 mm 5,7 km/h (1 Bft) N-NW22.5 330 -11,9 C 8,6 C
19.03.2019 16:41 8,7 C 22 % 1026,5 hPa 0,0 mm 11,2 km/h (2 Bft) N-NW22.5 330 -11,8 C 5,5 C
19.03.2019 16:36 8,6 C 22 % 1026,5 hPa 0,0 mm 3,1 km/h (1 Bft) N45 5 -11,9 C 8,6 C
19.03.2019 16:31 8,7 C 22 % 1026,5 hPa 0,0 mm 4,3 km/h (1 Bft) NW22.5 305 -11,8 C 8,7 C
19.03.2019 16:26 8,7 C 22 % 1025,5 hPa 0,0 mm 2,0 km/h (1 Bft) NW22.5 315 -11,8 C 8,7 C
19.03.2019 16:21 9,3 C 22 % 1025,3 hPa 0,0 mm 6,2 km/h (2 Bft) N-NW22.5 335 -11,3 C 9,3 C
19.03.2019 16:16 9,3 C 22 % 1025,3 hPa 0,0 mm 7,8 km/h (2 Bft) N-NW22.5 330 -11,3 C 8,3 C
19.03.2019 16:11 9,4 C 22 % 1025,3 hPa 0,0 mm 4,1 km/h (1 Bft) W22.5 280 -11,2 C 9,4 C
19.03.2019 16:06 9,5 C 22 % 1025,3 hPa 0,0 mm 4,9 km/h (1 Bft) S-SO22.5 160 -11,1 C 9,5 C
19.03.2019 16:01 9,4 C 22 % 1025,3 hPa 0,0 mm 2,4 km/h (1 Bft) S 180 -11,2 C 9,4 C
19.03.2019 15:56 9,2 C 22 % 1025,3 hPa 0,0 mm 3,6 km/h (1 Bft) S 180 -11,4 C 9,2 C
19.03.2019 15:51 9,1 C 22 % 1025,4 hPa 0,0 mm 0,7 km/h (0 Bft) S 180 -11,5 C 9,1 C
19.03.2019 15:46 9,2 C 22 % 1025,3 hPa 0,0 mm 3,5 km/h (1 Bft) W67.5 265 -11,4 C 9,2 C
19.03.2019 15:41 9,2 C 22 % 1025,3 hPa 0,0 mm 3,7 km/h (1 Bft) W-SW45 245 -11,4 C 9,2 C
19.03.2019 15:36 9,4 C 22 % 1025,3 hPa 0,0 mm 4,7 km/h (1 Bft) NW22.5 315 -11,2 C 9,4 C
19.03.2019 15:31 9,5 C 22 % 1025,3 hPa 0,0 mm 8,0 km/h (2 Bft) NW22.5 315 -11,1 C 8,3 C
19.03.2019 15:26 9,7 C 22 % 1025,2 hPa 0,0 mm 15,0 km/h (3 Bft) W-SW22.5 245 -11,0 C 4,8 C
19.03.2019 15:21 9,9 C 22 % 1025,2 hPa 0,0 mm 8,0 km/h (2 Bft) O-NO 60 -10,8 C 8,7 C
19.03.2019 15:16 9,7 C 22 % 1025,2 hPa 0,0 mm 5,2 km/h (1 Bft) N22.5 350 -11,0 C 9,7 C
19.03.2019 15:11 9,6 C 22 % 1025,2 hPa 0,0 mm 3,8 km/h (1 Bft) S-SW67.5 195 -11,0 C 9,6 C
19.03.2019 15:06 9,4 C 22 % 1025,3 hPa 0,0 mm 0,8 km/h (0 Bft) S 170 -11,2 C 9,4 C
19.03.2019 15:01 9,2 C 22 % 1025,3 hPa 0,0 mm 4,0 km/h (1 Bft) S 170 -11,4 C 9,2 C
19.03.2019 14:56 9,1 C 22 % 1025,4 hPa 0,0 mm 4,7 km/h (1 Bft) S 175 -11,5 C 9,1 C
19.03.2019 14:51 9,0 C 22 % 1025,4 hPa 0,0 mm 4,0 km/h (1 Bft) S-SO 160 -11,5 C 9,0 C
19.03.2019 14:46 9,1 C 22 % 1025,4 hPa 0,0 mm 0,6 km/h (0 Bft) W-SW 250 -11,5 C 9,1 C
19.03.2019 14:42 9,3 C 22 % 1025,3 hPa 0,0 mm 1,2 km/h (1 Bft) N-NW22.5 345 -11,3 C 9,3 C
19.03.2019 14:37 9,5 C 22 % 1025,3 hPa 0,0 mm 6,6 km/h (2 Bft) SW67.5 230 -11,1 C 9,4 C
19.03.2019 14:32 9,2 C 22 % 1025,3 hPa 0,0 mm 0,5 km/h (0 Bft) W 280 -11,4 C 9,2 C
19.03.2019 14:27 9,3 C 22 % 1025,3 hPa 0,0 mm 6,6 km/h (2 Bft) W-NW22.5 300 -11,3 C 9,2 C
19.03.2019 14:21 9,4 C 22 % 1025,3 hPa 0,0 mm 1,2 km/h (1 Bft) S-SW 195 -11,2 C 9,4 C
19.03.2019 14:16 9,0 C 24 % 1025,4 hPa 0,0 mm 3,7 km/h (1 Bft) S-SW22.5 195 -10,5 C 9,0 C
19.03.2019 14:11 8,4 C 28 % 1025,5 hPa 0,0 mm 3,1 km/h (1 Bft) S 175 -9,0 C 8,4 C
19.03.2019 14:06 8,2 C 28 % 1025,6 hPa 0,0 mm 4,1 km/h (1 Bft) S 180 -9,2 C 8,2 C
19.03.2019 14:01 8,4 C 28 % 1025,5 hPa 0,0 mm 4,5 km/h (1 Bft) S67.5 180 -9,0 C 8,4 C
19.03.2019 13:56 8,6 C 28 % 1025,5 hPa 0,0 mm 0,4 km/h (0 Bft) O-SO 110 -8,9 C 8,6 C
19.03.2019 13:51 8,8 C 22 % 1025,4 hPa 0,0 mm 5,7 km/h (1 Bft) S-SO 150 -11,7 C 8,8 C
19.03.2019 13:46 9,1 C 22 % 1025,4 hPa 0,0 mm 2,4 km/h (1 Bft) S22.5 170 -11,5 C 9,1 C
19.03.2019 13:41 9,6 C 22 % 1025,2 hPa 0,0 mm 5,7 km/h (1 Bft) S-SO 150 -11,0 C 9,6 C
19.03.2019 13:36 9,9 C 22 % 1025,2 hPa 0,0 mm 9,3 km/h (2 Bft) SO22.5 140 -10,8 C 7,9 C
19.03.2019 13:31 10,3 C 22 % 1025,1 hPa 0,0 mm 10,3 km/h (2 Bft) S-SO45 150 -10,5 C 7,8 C
19.03.2019 13:26 9,9 C 23 % 1025,2 hPa 0,0 mm 7,4 km/h (2 Bft) O-SO22.5 115 -10,2 C 9,2 C
19.03.2019 13:21 9,5 C 26 % 1026,3 hPa 0,0 mm 2,8 km/h (1 Bft) N 355 -9,0 C 9,5 C
19.03.2019 13:16 9,4 C 28 % 1026,4 hPa 0,0 mm 4,2 km/h (1 Bft) N-NW22.5 345 -8,2 C 9,4 C
19.03.2019 13:11 8,8 C 30 % 1026,5 hPa 0,0 mm 4,3 km/h (1 Bft) NW 310 -7,8 C 8,8 C
19.03.2019 13:06 8,4 C 30 % 1026,6 hPa 0,0 mm 5,5 km/h (1 Bft) N-NW22.5 330 -8,1 C 8,4 C
19.03.2019 13:01 8,2 C 30 % 1025,6 hPa 0,0 mm 3,9 km/h (1 Bft) W-NW 285 -8,3 C 8,2 C
19.03.2019 12:57 8,2 C 30 % 1026,6 hPa 0,0 mm 6,6 km/h (2 Bft) NW22.5 305 -8,3 C 8,1 C
19.03.2019 12:52 8,6 C 29 % 1026,5 hPa 0,0 mm 6,7 km/h (2 Bft) NW 325 -8,4 C 8,4 C
19.03.2019 12:47 8,7 C 28 % 1026,5 hPa 0,0 mm 0,4 km/h (0 Bft) W 280 -8,8 C 8,7 C
19.03.2019 12:41 9,2 C 28 % 1026,4 hPa 0,0 mm 6,8 km/h (2 Bft) S-SW45 195 -8,3 C 8,9 C
19.03.2019 12:36 9,5 C 28 % 1026,3 hPa 0,0 mm 5,9 km/h (2 Bft) S45 190 -8,1 C 9,5 C
19.03.2019 12:31 9,1 C 28 % 1026,4 hPa 0,0 mm 4,6 km/h (1 Bft) S-SO 155 -8,4 C 9,1 C
19.03.2019 12:26 8,9 C 32 % 1026,5 hPa 0,0 mm 4,4 km/h (1 Bft) SO 145 -6,9 C 8,9 C
19.03.2019 12:21 8,3 C 34 % 1026,6 hPa 0,0 mm 3,1 km/h (1 Bft) SO 145 -6,6 C 8,3 C
19.03.2019 12:16 7,9 C 36 % 1026,7 hPa 0,0 mm 5,5 km/h (1 Bft) S-SO22.5 150 -6,2 C 7,9 C
19.03.2019 12:11 7,7 C 37 % 1026,8 hPa 0,0 mm 0,3 km/h (0 Bft) SO 145 -6,0 C 7,7 C
19.03.2019 12:06 7,3 C 39 % 1026,8 hPa 0,0 mm 0,4 km/h (0 Bft) SO 145 -5,7 C 7,3 C
19.03.2019 12:01 7,2 C 39 % 1026,9 hPa 0,0 mm 0,6 km/h (0 Bft) SO 145 -5,8 C 7,2 C
_ Min-Zeit 06:21 13:31 13:31 - 20:46 - - 10:31 06:21
Minimum _ -2,6 C 22 % 1025,1 hPa - 0,0 km/h (0 Bft) - - -13,0 C -2,6 C
_ Max-Zeit 13:31 06:26 06:41 12:01 15:26 - - 12:06 15:16
Maximum _ 10,3 C 66 % 1034,6 hPa 0,0 mm 15,0 km/h
W-SW (3 Bft)
- - -5,7 C 9,7 C
Durchschnitt _ 4,0 C 42 % 1030,2 hPa #0,0 mm 1,7 km/h (1 Bft) N - -8,7 C 3,9 C